sensor_id;sensor_type;location;lat;lon;timestamp;pressure;altitude;pressure_sealevel;temperature;humidity
51178;BME280;37243;49.814;8.652;2022-07-25T00:01:09;99957.16;;;27.75;42.25
51178;BME280;37243;49.814;8.652;2022-07-25T00:03:40;99958.31;;;27.74;41.96
51178;BME280;37243;49.814;8.652;2022-07-25T00:06:08;99954.72;;;27.74;42.40
51178;BME280;37243;49.814;8.652;2022-07-25T00:08:37;99956.34;;;27.75;42.37
51178;BME280;37243;49.814;8.652;2022-07-25T00:11:05;99943.72;;;27.74;41.95
51178;BME280;37243;49.814;8.652;2022-07-25T00:13:33;99950.03;;;27.74;41.91
51178;BME280;37243;49.814;8.652;2022-07-25T00:16:02;99942.56;;;27.75;41.99
51178;BME280;37243;49.814;8.652;2022-07-25T00:18:30;99943.72;;;27.74;42.60
51178;BME280;37243;49.814;8.652;2022-07-25T00:21:01;99937.41;;;27.73;42.60
51178;BME280;37243;49.814;8.652;2022-07-25T00:23:29;99939.81;;;27.75;42.60
51178;BME280;37243;49.814;8.652;2022-07-25T00:25:58;99939.81;;;27.75;41.75
51178;BME280;37243;49.814;8.652;2022-07-25T00:28:26;99939.00;;;27.74;41.88
51178;BME280;37243;49.814;8.652;2022-07-25T00:30:55;99939.81;;;27.75;41.80
51178;BME280;37243;49.814;8.652;2022-07-25T00:33:24;99933.50;;;27.74;42.01
51178;BME280;37243;49.814;8.652;2022-07-25T00:35:52;99940.63;;;27.75;42.14
51178;BME280;37243;49.814;8.652;2022-07-25T00:38:23;99929.59;;;27.75;42.19
51178;BME280;37243;49.814;8.652;2022-07-25T00:40:51;99929.94;;;27.74;42.69
51178;BME280;37243;49.814;8.652;2022-07-25T00:43:20;99927.16;;;27.74;41.92
51178;BME280;37243;49.814;8.652;2022-07-25T00:45:48;99929.94;;;27.74;42.61
51178;BME280;37243;49.814;8.652;2022-07-25T00:48:17;99923.28;;;27.75;42.23
51178;BME280;37243;49.814;8.652;2022-07-25T00:50:45;99918.13;;;27.73;42.46
51178;BME280;37243;49.814;8.652;2022-07-25T00:53:14;99917.75;;;27.75;42.53
51178;BME280;37243;49.814;8.652;2022-07-25T00:55:45;99916.16;;;27.74;41.75
51178;BME280;37243;49.814;8.652;2022-07-25T00:58:14;99910.63;;;27.74;41.70
51178;BME280;37243;49.814;8.652;2022-07-25T01:00:43;99915.38;;;27.73;42.17
51178;BME280;37243;49.814;8.652;2022-07-25T01:03:11;99913.75;;;27.72;41.75
51178;BME280;37243;49.814;8.652;2022-07-25T01:05:40;99902.72;;;27.72;41.76
51178;BME280;37243;49.814;8.652;2022-07-25T01:08:09;99896.84;;;27.74;42.30
51178;BME280;37243;49.814;8.652;2022-07-25T01:10:37;99902.72;;;27.72;42.13
51178;BME280;37243;49.814;8.652;2022-07-25T01:13:08;99886.31;;;27.76;42.07
51178;BME280;37243;49.814;8.652;2022-07-25T01:15:37;99887.44;;;27.75;41.79
51178;BME280;37243;49.814;8.652;2022-07-25T01:18:05;99886.63;;;27.74;42.46
51178;BME280;37243;49.814;8.652;2022-07-25T01:20:36;99882.75;;;27.75;41.63
51178;BME280;37243;49.814;8.652;2022-07-25T01:23:05;99886.31;;;27.76;41.71
51178;BME280;37243;49.814;8.652;2022-07-25T01:25:33;99880.78;;;27.76;42.12
51178;BME280;37243;49.814;8.652;2022-07-25T01:28:02;99873.66;;;27.75;42.28
51178;BME280;37243;49.814;8.652;2022-07-25T01:30:30;99871.72;;;27.75;41.71
51178;BME280;37243;49.814;8.652;2022-07-25T01:32:58;99873.56;;;27.71;42.30
51178;BME280;37243;49.814;8.652;2022-07-25T01:35:27;99868.03;;;27.71;42.33
51178;BME280;37243;49.814;8.652;2022-07-25T01:37:58;99859.31;;;27.69;42.19
51178;BME280;37243;49.814;8.652;2022-07-25T01:40:26;99860.13;;;27.70;42.04
51178;BME280;37243;49.814;8.652;2022-07-25T01:42:55;99858.53;;;27.69;42.44
51178;BME280;37243;49.814;8.652;2022-07-25T01:45:23;99854.97;;;27.68;41.82
51178;BME280;37243;49.814;8.652;2022-07-25T01:47:51;99857.38;;;27.70;41.71
51178;BME280;37243;49.814;8.652;2022-07-25T01:50:20;99853.38;;;27.67;42.55
51178;BME280;37243;49.814;8.652;2022-07-25T01:52:49;99856.47;;;27.66;42.15
51178;BME280;37243;49.814;8.652;2022-07-25T01:55:20;99855.31;;;27.67;42.55
51178;BME280;37243;49.814;8.652;2022-07-25T01:57:48;99848.19;;;27.66;41.79
51178;BME280;37243;49.814;8.652;2022-07-25T02:00:17;99850.13;;;27.65;41.84
51178;BME280;37243;49.814;8.652;2022-07-25T02:02:45;99844.28;;;27.67;41.69
51178;BME280;37243;49.814;8.652;2022-07-25T02:05:14;99843.16;;;27.68;41.69
51178;BME280;37243;49.814;8.652;2022-07-25T02:07:42;99843.50;;;27.66;41.79
51178;BME280;37243;49.814;8.652;2022-07-25T02:10:11;99850.13;;;27.65;41.67
51178;BME280;37243;49.814;8.652;2022-07-25T02:12:42;99839.94;;;27.66;42.02
51178;BME280;37243;49.814;8.652;2022-07-25T02:15:10;99843.38;;;27.63;42.52
51178;BME280;37243;49.814;8.652;2022-07-25T02:17:39;99840.19;;;27.60;42.42
51178;BME280;37243;49.814;8.652;2022-07-25T02:20:09;99827.22;;;27.61;42.21
51178;BME280;37243;49.814;8.652;2022-07-25T02:22:38;99827.31;;;27.65;42.39
51178;BME280;37243;49.814;8.652;2022-07-25T02:25:07;99828.47;;;27.64;42.07
51178;BME280;37243;49.814;8.652;2022-07-25T02:27:35;99825.25;;;27.62;41.97
51178;BME280;37243;49.814;8.652;2022-07-25T02:30:07;99823.66;;;27.60;42.20
51178;BME280;37243;49.814;8.652;2022-07-25T02:32:36;99818.94;;;27.61;42.20
51178;BME280;37243;49.814;8.652;2022-07-25T02:35:06;99816.19;;;27.61;42.44
51178;BME280;37243;49.814;8.652;2022-07-25T02:37:34;99813.88;;;27.63;42.24
51178;BME280;37243;49.814;8.652;2022-07-25T02:40:03;99810.31;;;27.63;42.10
51178;BME280;37243;49.814;8.652;2022-07-25T02:42:32;99806.41;;;27.64;42.47
51178;BME280;37243;49.814;8.652;2022-07-25T02:45:00;99813.06;;;27.63;41.86
51178;BME280;37243;49.814;8.652;2022-07-25T02:47:31;99808.72;;;27.62;42.17
51178;BME280;37243;49.814;8.652;2022-07-25T02:50:00;99807.09;;;27.60;42.21
51178;BME280;37243;49.814;8.652;2022-07-25T02:52:29;99807.09;;;27.60;42.15
51178;BME280;37243;49.814;8.652;2022-07-25T02:54:57;99811.13;;;27.63;41.69
51178;BME280;37243;49.814;8.652;2022-07-25T02:57:26;99808.03;;;27.65;42.41
51178;BME280;37243;49.814;8.652;2022-07-25T02:59:54;99813.06;;;27.63;41.94
51178;BME280;37243;49.814;8.652;2022-07-25T03:02:22;99809.16;;;27.64;41.67
51178;BME280;37243;49.814;8.652;2022-07-25T03:04:53;99812.72;;;27.64;41.71
51178;BME280;37243;49.814;8.652;2022-07-25T03:07:21;99808.72;;;27.62;41.81
51178;BME280;37243;49.814;8.652;2022-07-25T03:09:50;99806.41;;;27.64;42.23
51178;BME280;37243;49.814;8.652;2022-07-25T03:12:18;99808.34;;;27.63;41.84
51178;BME280;37243;49.814;8.652;2022-07-25T03:14:47;99809.88;;;27.60;42.12
51178;BME280;37243;49.814;8.652;2022-07-25T03:17:15;99809.06;;;27.60;42.08
51178;BME280;37243;49.814;8.652;2022-07-25T03:19:43;99809.41;;;27.58;42.41
51178;BME280;37243;49.814;8.652;2022-07-25T03:22:14;99802.28;;;27.57;42.14
51178;BME280;37243;49.814;8.652;2022-07-25T03:24:43;99803.44;;;27.56;41.71
51178;BME280;37243;49.814;8.652;2022-07-25T03:27:11;99806.66;;;27.58;42.11
51178;BME280;37243;49.814;8.652;2022-07-25T03:29:40;99813.31;;;27.57;41.85
51178;BME280;37243;49.814;8.652;2022-07-25T03:32:08;99810.13;;;27.55;41.80
51178;BME280;37243;49.814;8.652;2022-07-25T03:34:36;99805.06;;;27.57;42.26
51178;BME280;37243;49.814;8.652;2022-07-25T03:39:46;99802.66;;;27.56;42.17
51178;BME280;37243;49.814;8.652;2022-07-25T03:42:14;99798.19;;;27.51;42.14
51178;BME280;37243;49.814;8.652;2022-07-25T03:44:43;99798.63;;;27.53;41.90
51178;BME280;37243;49.814;8.652;2022-07-25T03:47:11;99801.50;;;27.57;42.18
51178;BME280;37243;49.814;8.652;2022-07-25T03:49:40;99800.59;;;27.53;42.65
51178;BME280;37243;49.814;8.652;2022-07-25T03:52:08;99792.78;;;27.55;42.11
51178;BME280;37243;49.814;8.652;2022-07-25T03:54:36;99790.84;;;27.55;42.18
51178;BME280;37243;49.814;8.652;2022-07-25T03:57:07;99793.59;;;27.55;41.85
51178;BME280;37243;49.814;8.652;2022-07-25T03:59:36;99800.69;;;27.56;42.28
51178;BME280;37243;49.814;8.652;2022-07-25T04:02:05;99811.38;;;27.58;42.52
51178;BME280;37243;49.814;8.652;2022-07-25T04:04:33;99802.66;;;27.56;41.86
51178;BME280;37243;49.814;8.652;2022-07-25T04:07:01;99804.69;;;27.59;42.29
51178;BME280;37243;49.814;8.652;2022-07-25T04:09:30;99799.19;;;27.59;42.20
51178;BME280;37243;49.814;8.652;2022-07-25T04:11:58;99802.66;;;27.56;42.48
51178;BME280;37243;49.814;8.652;2022-07-25T04:14:29;99799.09;;;27.55;42.30
51178;BME280;37243;49.814;8.652;2022-07-25T04:16:58;99804.25;;;27.57;42.44
51178;BME280;37243;49.814;8.652;2022-07-25T04:19:26;99802.75;;;27.59;41.76
51178;BME280;37243;49.814;8.652;2022-07-25T04:21:55;99803.44;;;27.56;42.59
51178;BME280;37243;49.814;8.652;2022-07-25T04:24:23;99797.47;;;27.54;42.22
51178;BME280;37243;49.814;8.652;2022-07-25T04:26:51;99790.72;;;27.52;42.49
51178;BME280;37243;49.814;8.652;2022-07-25T04:29:20;99789.09;;;27.51;42.33
51178;BME280;37243;49.814;8.652;2022-07-25T04:31:51;99781.66;;;27.51;41.78
51178;BME280;37243;49.814;8.652;2022-07-25T04:34:19;99779.16;;;27.46;42.08
51178;BME280;37243;49.814;8.652;2022-07-25T04:36:48;99776.72;;;27.45;42.68
51178;BME280;37243;49.814;8.652;2022-07-25T04:39:16;99773.53;;;27.43;42.40
51178;BME280;37243;49.814;8.652;2022-07-25T04:41:45;99774.34;;;27.43;42.55
51178;BME280;37243;49.814;8.652;2022-07-25T04:44:13;99775.81;;;27.41;42.90
51178;BME280;37243;49.814;8.652;2022-07-25T04:46:41;99776.50;;;27.38;42.26
51178;BME280;37243;49.814;8.652;2022-07-25T04:49:12;99772.94;;;27.37;43.00
51178;BME280;37243;49.814;8.652;2022-07-25T04:51:41;99755.97;;;27.35;42.44
51178;BME280;37243;49.814;8.652;2022-07-25T04:54:09;99763.75;;;27.33;42.74
51178;BME280;37243;49.814;8.652;2022-07-25T04:56:37;99763.31;;;27.31;42.95
51178;BME280;37243;49.814;8.652;2022-07-25T04:59:06;99764.94;;;27.32;42.92
51178;BME280;37243;49.814;8.652;2022-07-25T05:01:34;99761.25;;;27.28;43.00
51178;BME280;37243;49.814;8.652;2022-07-25T05:04:03;99762.88;;;27.29;42.84
51178;BME280;37243;49.814;8.652;2022-07-25T05:06:34;99770.31;;;27.29;42.79
51178;BME280;37243;49.814;8.652;2022-07-25T05:09:02;99772.97;;;27.25;43.41
51178;BME280;37243;49.814;8.652;2022-07-25T05:11:31;99773.44;;;27.27;42.82
51178;BME280;37243;49.814;8.652;2022-07-25T05:13:59;99774.59;;;27.26;43.66
51178;BME280;37243;49.814;8.652;2022-07-25T05:16:28;99772.16;;;27.25;43.27
51178;BME280;37243;49.814;8.652;2022-07-25T05:18:56;99770.09;;;27.22;43.40
51178;BME280;37243;49.814;8.652;2022-07-25T05:21:24;99772.97;;;27.25;43.65
51178;BME280;37243;49.814;8.652;2022-07-25T05:23:55;99775.28;;;27.23;43.52
51178;BME280;37243;49.814;8.652;2022-07-25T05:26:24;99772.97;;;27.25;43.71
51178;BME280;37243;49.814;8.652;2022-07-25T05:28:52;99764.72;;;27.25;43.90
51178;BME280;37243;49.814;8.652;2022-07-25T05:31:20;99771.38;;;27.24;43.45
51178;BME280;37243;49.814;8.652;2022-07-25T05:33:49;99768.16;;;27.22;43.35
51178;BME280;37243;49.814;8.652;2022-07-25T05:36:17;99771.13;;;27.29;43.46
51178;BME280;37243;49.814;8.652;2022-07-25T05:38:45;99776.97;;;27.28;43.77
51178;BME280;37243;49.814;8.652;2022-07-25T05:41:16;99764.81;;;27.29;43.70
51178;BME280;37243;49.814;8.652;2022-07-25T05:43:45;99767.22;;;27.30;43.69
51178;BME280;37243;49.814;8.652;2022-07-25T05:46:14;99753.44;;;27.30;43.62
51178;BME280;37243;49.814;8.652;2022-07-25T05:48:42;99761.38;;;27.32;43.48
51178;BME280;37243;49.814;8.652;2022-07-25T05:51:11;99753.44;;;27.30;43.89
51178;BME280;37243;49.814;8.652;2022-07-25T05:53:39;99761.69;;;27.30;43.90
51178;BME280;37243;49.814;8.652;2022-07-25T05:56:08;99763.75;;;27.33;43.71
51178;BME280;37243;49.814;8.652;2022-07-25T05:58:39;99752.75;;;27.33;43.52
51178;BME280;37243;49.814;8.652;2022-07-25T06:01:08;99750.78;;;27.34;43.29
51178;BME280;37243;49.814;8.652;2022-07-25T06:03:39;99756.19;;;27.30;42.95
51178;BME280;37243;49.814;8.652;2022-07-25T06:06:07;99749.53;;;27.31;43.71
51178;BME280;37243;49.814;8.652;2022-07-25T06:08:36;99754.34;;;27.34;43.14
51178;BME280;37243;49.814;8.652;2022-07-25T06:11:05;99748.03;;;27.34;43.31
51178;BME280;37243;49.814;8.652;2022-07-25T06:13:33;99736.31;;;27.37;43.07
51178;BME280;37243;49.814;8.652;2022-07-25T06:16:05;99738.75;;;27.38;43.21
51178;BME280;37243;49.814;8.652;2022-07-25T06:18:33;99733.34;;;27.42;42.87
51178;BME280;37243;49.814;8.652;2022-07-25T06:21:02;99723.13;;;27.42;42.68
51178;BME280;37243;49.814;8.652;2022-07-25T06:23:30;99731.41;;;27.42;43.42
51178;BME280;37243;49.814;8.652;2022-07-25T06:25:59;99735.06;;;27.46;43.29
51178;BME280;37243;49.814;8.652;2022-07-25T06:28:27;99733.94;;;27.47;42.81
51178;BME280;37243;49.814;8.652;2022-07-25T06:30:55;99732.75;;;27.48;42.71
51178;BME280;37243;49.814;8.652;2022-07-25T06:33:26;99733.19;;;27.50;43.31
51178;BME280;37243;49.814;8.652;2022-07-25T06:35:55;99733.19;;;27.50;42.72
51178;BME280;37243;49.814;8.652;2022-07-25T06:38:23;99719.91;;;27.52;43.25
51178;BME280;37243;49.814;8.652;2022-07-25T06:40:51;99724.22;;;27.53;43.36
51178;BME280;37243;49.814;8.652;2022-07-25T06:43:20;99725.50;;;27.56;43.28
51178;BME280;37243;49.814;8.652;2022-07-25T06:45:48;99720.78;;;27.56;42.51
51178;BME280;37243;49.814;8.652;2022-07-25T06:48:17;99724.22;;;27.53;43.24
51178;BME280;37243;49.814;8.652;2022-07-25T06:50:48;99727.47;;;27.55;43.00
51178;BME280;37243;49.814;8.652;2022-07-25T06:53:16;99720.69;;;27.53;43.16
51178;BME280;37243;49.814;8.652;2022-07-25T06:55:44;99715.25;;;27.56;43.21
51178;BME280;37243;49.814;8.652;2022-07-25T06:58:13;99715.75;;;27.58;42.85
51178;BME280;37243;49.814;8.652;2022-07-25T07:00:41;99714.13;;;27.57;42.80
51178;BME280;37243;49.814;8.652;2022-07-25T07:03:10;99709.75;;;27.56;42.87
51178;BME280;37243;49.814;8.652;2022-07-25T07:05:38;99709.41;;;27.58;42.54
51178;BME280;37243;49.814;8.652;2022-07-25T07:08:09;99708.63;;;27.57;42.51
51178;BME280;37243;49.814;8.652;2022-07-25T07:10:38;99703.09;;;27.57;42.44
51178;BME280;37243;49.814;8.652;2022-07-25T07:13:09;99710.22;;;27.58;42.53
51178;BME280;37243;49.814;8.652;2022-07-25T07:15:38;99707.91;;;27.60;42.60
51178;BME280;37243;49.814;8.652;2022-07-25T07:18:11;99706.31;;;27.59;43.14
51178;BME280;37243;49.814;8.652;2022-07-25T07:20:41;99704.78;;;27.62;42.78
51178;BME280;37243;49.814;8.652;2022-07-25T07:23:12;99712.28;;;27.62;42.98
51178;BME280;37243;49.814;8.652;2022-07-25T07:25:41;99711.47;;;27.61;42.67
51178;BME280;37243;49.814;8.652;2022-07-25T07:28:10;99711.91;;;27.63;42.77
51178;BME280;37243;49.814;8.652;2022-07-25T07:30:38;99705.25;;;27.64;43.15
51178;BME280;37243;49.814;8.652;2022-07-25T07:33:07;99706.06;;;27.65;43.16
51178;BME280;37243;49.814;8.652;2022-07-25T07:35:35;99715.09;;;27.65;43.06
51178;BME280;37243;49.814;8.652;2022-07-25T07:38:04;99713.16;;;27.66;42.96
51178;BME280;37243;49.814;8.652;2022-07-25T07:40:36;99713.16;;;27.66;42.54
51178;BME280;37243;49.814;8.652;2022-07-25T07:43:04;99713.97;;;27.66;42.94
51178;BME280;37243;49.814;8.652;2022-07-25T07:45:33;99714.78;;;27.67;43.07
51178;BME280;37243;49.814;8.652;2022-07-25T07:48:02;99712.81;;;27.67;43.13
51178;BME280;37243;49.814;8.652;2022-07-25T07:50:31;99716.72;;;27.66;42.72
51178;BME280;37243;49.814;8.652;2022-07-25T07:52:59;99712.00;;;27.67;43.21
51178;BME280;37243;49.814;8.652;2022-07-25T07:55:28;99709.69;;;27.69;42.74
51178;BME280;37243;49.814;8.652;2022-07-25T07:58:12;99712.81;;;27.67;42.90
51178;BME280;37243;49.814;8.652;2022-07-25T08:00:43;99702.59;;;27.68;42.80
51178;BME280;37243;49.814;8.652;2022-07-25T08:03:15;99708.13;;;27.68;42.54
51178;BME280;37243;49.814;8.652;2022-07-25T08:05:45;99707.75;;;27.69;42.79
51178;BME280;37243;49.814;8.652;2022-07-25T08:08:14;99703.75;;;27.67;42.92
51178;BME280;37243;49.814;8.652;2022-07-25T08:10:45;99697.53;;;27.70;43.08
51178;BME280;37243;49.814;8.652;2022-07-25T08:13:20;99705.81;;;27.70;42.74
51178;BME280;37243;49.814;8.652;2022-07-25T08:15:50;99703.84;;;27.70;42.85
51178;BME280;37243;49.814;8.652;2022-07-25T08:18:20;99703.50;;;27.72;42.34
51178;BME280;37243;49.814;8.652;2022-07-25T08:20:49;99715.66;;;27.71;43.14
51178;BME280;37243;49.814;8.652;2022-07-25T08:23:18;99717.25;;;27.72;42.79
51178;BME280;37243;49.814;8.652;2022-07-25T08:25:47;99707.84;;;27.73;42.58
51178;BME280;37243;49.814;8.652;2022-07-25T08:28:19;99707.38;;;27.71;42.75
51178;BME280;37243;49.814;8.652;2022-07-25T08:30:47;99705.44;;;27.71;42.40
51178;BME280;37243;49.814;8.652;2022-07-25T08:33:17;99696.38;;;27.71;43.13
51178;BME280;37243;49.814;8.652;2022-07-25T08:35:46;99711.31;;;27.70;43.13
51178;BME280;37243;49.814;8.652;2022-07-25T08:38:16;99699.13;;;27.71;42.45
51178;BME280;37243;49.814;8.652;2022-07-25T08:40:44;99694.88;;;27.73;42.79
51178;BME280;37243;49.814;8.652;2022-07-25T08:43:14;99697.63;;;27.73;42.73
51178;BME280;37243;49.814;8.652;2022-07-25T08:45:46;99690.94;;;27.74;42.34
51178;BME280;37243;49.814;8.652;2022-07-25T08:48:17;99695.66;;;27.74;43.21
51178;BME280;37243;49.814;8.652;2022-07-25T08:50:47;99693.38;;;27.76;42.33
51178;BME280;37243;49.814;8.652;2022-07-25T08:53:17;99682.34;;;27.76;42.86
51178;BME280;37243;49.814;8.652;2022-07-25T08:55:46;99687.06;;;27.75;42.76
51178;BME280;37243;49.814;8.652;2022-07-25T08:58:15;99690.16;;;27.74;43.19
51178;BME280;37243;49.814;8.652;2022-07-25T09:00:47;99677.97;;;27.75;43.06
51178;BME280;37243;49.814;8.652;2022-07-25T09:03:16;99682.69;;;27.74;42.54
51178;BME280;37243;49.814;8.652;2022-07-25T09:05:44;99679.94;;;27.74;42.41
51178;BME280;37243;49.814;8.652;2022-07-25T09:08:14;99682.69;;;27.74;42.43
51178;BME280;37243;49.814;8.652;2022-07-25T09:10:45;99686.25;;;27.75;42.78
51178;BME280;37243;49.814;8.652;2022-07-25T09:13:15;99677.63;;;27.76;42.69
51178;BME280;37243;49.814;8.652;2022-07-25T09:15:48;99677.28;;;27.78;42.87
51178;BME280;37243;49.814;8.652;2022-07-25T09:18:21;99667.84;;;27.79;43.11
51178;BME280;37243;49.814;8.652;2022-07-25T09:20:52;99664.28;;;27.78;42.53
51178;BME280;37243;49.814;8.652;2022-07-25T09:23:27;99665.09;;;27.79;42.77
51178;BME280;37243;49.814;8.652;2022-07-25T09:26:03;99666.69;;;27.80;42.98
51178;BME280;37243;49.814;8.652;2022-07-25T09:28:39;99660.41;;;27.79;42.76
51178;BME280;37243;49.814;8.652;2022-07-25T09:31:11;99646.25;;;27.81;42.92
51178;BME280;37243;49.814;8.652;2022-07-25T09:33:45;99653.38;;;27.82;42.42
51178;BME280;37243;49.814;8.652;2022-07-25T09:36:14;99657.72;;;27.83;42.85
51178;BME280;37243;49.814;8.652;2022-07-25T09:41:09;99648.63;;;27.82;42.45
51178;BME280;37243;49.814;8.652;2022-07-25T09:43:39;99639.66;;;27.85;42.99
51178;BME280;37243;49.814;8.652;2022-07-25T09:46:11;99648.72;;;27.86;43.15
51178;BME280;37243;49.814;8.652;2022-07-25T09:48:43;99639.03;;;27.92;42.78
51178;BME280;37243;49.814;8.652;2022-07-25T09:51:11;99642.59;;;27.92;43.11
51178;BME280;37243;49.814;8.652;2022-07-25T09:53:40;99633.53;;;27.92;43.47
51178;BME280;37243;49.814;8.652;2022-07-25T09:56:08;99631.56;;;27.92;43.44
51178;BME280;37243;49.814;8.652;2022-07-25T09:58:37;99630.78;;;27.92;43.15
51178;BME280;37243;49.814;8.652;2022-07-25T10:01:06;99626.88;;;27.93;42.65
51178;BME280;37243;49.814;8.652;2022-07-25T10:03:47;99622.94;;;27.94;43.04
51178;BME280;37243;49.814;8.652;2022-07-25T10:06:20;99623.75;;;27.94;42.98
51178;BME280;37243;49.814;8.652;2022-07-25T10:08:52;99624.53;;;27.95;43.40
51178;BME280;37243;49.814;8.652;2022-07-25T10:11:22;99626.16;;;27.96;43.07
51178;BME280;37243;49.814;8.652;2022-07-25T10:13:51;99623.41;;;27.96;42.84
51178;BME280;37243;49.814;8.652;2022-07-25T10:16:22;99615.13;;;27.96;42.94
51178;BME280;37243;49.814;8.652;2022-07-25T10:18:54;99617.88;;;27.96;42.94
51178;BME280;37243;49.814;8.652;2022-07-25T10:21:25;99607.19;;;27.94;42.61
51178;BME280;37243;49.814;8.652;2022-07-25T10:24:00;99621.78;;;27.95;42.97
51178;BME280;37243;49.814;8.652;2022-07-25T10:26:29;99613.53;;;27.95;42.57
51178;BME280;37243;49.814;8.652;2022-07-25T10:28:58;99598.59;;;27.96;43.18
51178;BME280;37243;49.814;8.652;2022-07-25T10:31:34;99600.53;;;27.95;42.87
51178;BME280;37243;49.814;8.652;2022-07-25T10:34:08;99603.28;;;27.95;42.70
51178;BME280;37243;49.814;8.652;2022-07-25T10:36:42;99602.50;;;27.95;43.18
51178;BME280;37243;49.814;8.652;2022-07-25T10:39:14;99596.97;;;27.95;42.88
51178;BME280;37243;49.814;8.652;2022-07-25T10:41:51;99593.88;;;27.96;42.83
51178;BME280;37243;49.814;8.652;2022-07-25T10:44:20;99589.84;;;27.94;42.50
51178;BME280;37243;49.814;8.652;2022-07-25T10:46:48;99584.34;;;27.94;42.98
51178;BME280;37243;49.814;8.652;2022-07-25T10:49:21;99580.44;;;27.95;42.56
51178;BME280;37243;49.814;8.652;2022-07-25T10:51:54;99584.34;;;27.94;43.02
51178;BME280;37243;49.814;8.652;2022-07-25T10:54:23;99585.94;;;27.95;42.50
51178;BME280;37243;49.814;8.652;2022-07-25T10:56:54;99582.75;;;27.93;42.63
51178;BME280;37243;49.814;8.652;2022-07-25T10:59:27;99568.97;;;27.93;43.29
51178;BME280;37243;49.814;8.652;2022-07-25T11:01:56;99580.81;;;27.93;42.89
51178;BME280;37243;49.814;8.652;2022-07-25T11:04:28;99576.06;;;27.94;43.14
51178;BME280;37243;49.814;8.652;2022-07-25T11:06:56;99569.41;;;27.95;43.18
51178;BME280;37243;49.814;8.652;2022-07-25T11:09:26;99558.38;;;27.95;42.73
51178;BME280;37243;49.814;8.652;2022-07-25T11:11:56;99561.13;;;27.95;42.87
51178;BME280;37243;49.814;8.652;2022-07-25T11:14:28;99557.22;;;27.96;42.61
51178;BME280;37243;49.814;8.652;2022-07-25T11:17:10;99562.75;;;27.96;43.21
51178;BME280;37243;49.814;8.652;2022-07-25T11:19:42;99565.50;;;27.96;42.97
51178;BME280;37243;49.814;8.652;2022-07-25T11:22:11;99555.28;;;27.96;42.65
51178;BME280;37243;49.814;8.652;2022-07-25T11:24:40;99556.06;;;27.97;43.18
51178;BME280;37243;49.814;8.652;2022-07-25T11:27:11;99554.47;;;27.96;42.80
51178;BME280;37243;49.814;8.652;2022-07-25T11:29:40;99552.06;;;27.94;43.26
51178;BME280;37243;49.814;8.652;2022-07-25T11:32:10;99555.28;;;27.96;42.92
51178;BME280;37243;49.814;8.652;2022-07-25T11:34:43;99557.22;;;27.96;42.97
51178;BME280;37243;49.814;8.652;2022-07-25T11:37:14;99554.47;;;27.96;43.11
51178;BME280;37243;49.814;8.652;2022-07-25T11:39:45;99557.22;;;27.96;43.25
51178;BME280;37243;49.814;8.652;2022-07-25T11:42:15;99568.69;;;27.98;43.07
51178;BME280;37243;49.814;8.652;2022-07-25T11:44:45;99565.94;;;27.98;43.24
51178;BME280;37243;49.814;8.652;2022-07-25T11:47:27;99565.50;;;27.96;43.16
51178;BME280;37243;49.814;8.652;2022-07-25T11:50:00;99567.88;;;27.97;43.20
51178;BME280;37243;49.814;8.652;2022-07-25T11:52:30;99563.97;;;27.98;43.25
51178;BME280;37243;49.814;8.652;2022-07-25T11:55:00;99568.69;;;27.98;42.92
51178;BME280;37243;49.814;8.652;2022-07-25T11:57:30;99567.09;;;27.97;43.14
51178;BME280;37243;49.814;8.652;2022-07-25T12:00:00;99560.41;;;27.98;43.25
51178;BME280;37243;49.814;8.652;2022-07-25T12:02:30;99558.47;;;27.98;42.92
51178;BME280;37243;49.814;8.652;2022-07-25T12:05:04;99557.31;;;27.99;43.22
51178;BME280;37243;49.814;8.652;2022-07-25T12:07:41;99565.59;;;27.99;42.80
51178;BME280;37243;49.814;8.652;2022-07-25T12:10:11;99567.53;;;27.99;42.96
51178;BME280;37243;49.814;8.652;2022-07-25T12:12:45;99575.44;;;28.00;43.24
51178;BME280;37243;49.814;8.652;2022-07-25T12:15:16;99562.47;;;28.01;42.80
51178;BME280;37243;49.814;8.652;2022-07-25T12:17:45;99571.88;;;28.00;42.47
51178;BME280;37243;49.814;8.652;2022-07-25T12:20:19;99555.34;;;28.00;42.60
51178;BME280;37243;49.814;8.652;2022-07-25T12:22:49;99562.91;;;28.03;42.47
51178;BME280;37243;49.814;8.652;2022-07-25T12:25:18;99557.38;;;28.03;43.03
51178;BME280;37243;49.814;8.652;2022-07-25T12:27:47;99549.13;;;28.03;42.62
51178;BME280;37243;49.814;8.652;2022-07-25T12:30:17;99547.53;;;28.02;42.79
51178;BME280;37243;49.814;8.652;2022-07-25T12:32:46;99545.13;;;28.00;42.94
51178;BME280;37243;49.814;8.652;2022-07-25T12:35:17;99545.94;;;28.01;42.55
51178;BME280;37243;49.814;8.652;2022-07-25T12:37:45;99541.22;;;28.01;42.66
51178;BME280;37243;49.814;8.652;2022-07-25T12:40:14;99536.16;;;28.03;43.02
51178;BME280;37243;49.814;8.652;2022-07-25T12:42:43;99528.69;;;28.04;42.46
51178;BME280;37243;49.814;8.652;2022-07-25T12:45:12;99532.56;;;28.03;43.05
51178;BME280;37243;49.814;8.652;2022-07-25T12:47:43;99527.06;;;28.03;43.24
51178;BME280;37243;49.814;8.652;2022-07-25T12:50:12;99535.00;;;28.04;42.87
51178;BME280;37243;49.814;8.652;2022-07-25T12:52:45;99529.50;;;28.04;42.45
51178;BME280;37243;49.814;8.652;2022-07-25T12:55:16;99531.44;;;28.04;42.91
51178;BME280;37243;49.814;8.652;2022-07-25T12:57:45;99530.31;;;28.05;42.95
51178;BME280;37243;49.814;8.652;2022-07-25T13:00:16;99527.53;;;28.05;43.13
51178;BME280;37243;49.814;8.652;2022-07-25T13:02:44;99531.88;;;28.06;43.12
51178;BME280;37243;49.814;8.652;2022-07-25T13:05:13;99539.72;;;28.04;42.43
51178;BME280;37243;49.814;8.652;2022-07-25T13:07:44;99538.09;;;28.03;42.82
51178;BME280;37243;49.814;8.652;2022-07-25T13:10:13;99528.69;;;28.04;42.39
51178;BME280;37243;49.814;8.652;2022-07-25T13:12:42;99527.53;;;28.05;43.27
51178;BME280;37243;49.814;8.652;2022-07-25T13:15:11;99523.97;;;28.04;42.82
51178;BME280;37243;49.814;8.652;2022-07-25T13:17:39;99527.88;;;28.03;43.27